Terminal Aerodrome Forecast
Issued by NWS

Home | Current Version | Previous Version | Text Only | Print | Product List | Glossary On
Versions: 1 2 3 4 5 6 7 8 9 10 11 12
000
FTUS45 KABQ 022334
TAFSAF
TAF
KSAF 022334Z 0300/0324 27009KT P6SM VCTS SCT080CB BKN150
     FM030100 30008KT P6SM VCSH BKN120
     FM030400 36008KT P6SM BKN100
     FM031800 23010KT P6SM SCT080 BKN150
     FM032100 24011G18KT P6SM BKN100=

USA.gov is the U.S. government's official web portal to all federal, state and local government web resources and services.